createdAt,value
2022-12-06T00:01:52.255Z,15.63
2022-12-06T00:04:53.942Z,15.00
2022-12-06T00:07:55.586Z,15.60
2022-12-06T00:11:02.969Z,14.97
2022-12-06T00:14:05.990Z,15.03
2022-12-06T00:17:07.555Z,14.93
2022-12-06T00:20:09.847Z,16.40
2022-12-06T00:23:11.474Z,15.03
2022-12-06T00:26:13.932Z,15.90
2022-12-06T00:29:17.168Z,14.87
2022-12-06T00:32:19.794Z,13.30
2022-12-06T00:35:21.643Z,13.57
2022-12-06T00:38:23.324Z,13.87
2022-12-06T00:41:25.188Z,15.10
2022-12-06T00:44:26.820Z,16.13
2022-12-06T00:47:28.440Z,14.90
2022-12-06T00:50:30.058Z,15.40
2022-12-06T00:53:31.689Z,16.50
2022-12-06T00:56:35.199Z,15.17
2022-12-06T00:59:36.814Z,13.63
2022-12-06T01:02:38.437Z,13.83
2022-12-06T01:05:43.784Z,14.93
2022-12-06T01:08:45.345Z,13.83
2022-12-06T01:11:46.991Z,15.17
2022-12-06T01:14:48.712Z,14.80
2022-12-06T01:17:50.300Z,16.27
2022-12-06T01:20:51.900Z,15.93
2022-12-06T01:23:56.360Z,15.43
2022-12-06T01:26:57.972Z,14.20
2022-12-06T01:29:59.875Z,14.20
2022-12-06T01:33:01.638Z,14.87
2022-12-06T01:36:03.314Z,13.80
2022-12-06T01:39:07.087Z,13.80
2022-12-06T01:42:09.792Z,14.40
2022-12-06T01:45:11.461Z,15.87
2022-12-06T01:48:13.066Z,15.57
2022-12-06T01:51:15.227Z,15.37
2022-12-06T01:54:17.622Z,15.07
2022-12-06T01:57:19.296Z,15.73
2022-12-06T02:00:20.952Z,14.70
2022-12-06T02:03:24.023Z,14.23
2022-12-06T02:06:25.759Z,15.07
2022-12-06T02:09:28.503Z,14.80
2022-12-06T02:12:30.316Z,13.73
2022-12-06T02:15:37.529Z,12.80
2022-12-06T02:18:58.379Z,13.67
2022-12-06T02:22:06.237Z,14.63
2022-12-06T02:25:11.153Z,13.70
2022-12-06T02:28:39.230Z,13.63
2022-12-06T02:31:56.237Z,14.27
2022-12-06T02:35:03.123Z,13.47
2022-12-06T02:38:12.696Z,13.73
2022-12-06T02:41:19.691Z,13.80
2022-12-06T02:44:26.196Z,13.77
2022-12-06T02:47:31.637Z,14.83
2022-12-06T02:50:46.712Z,14.50
2022-12-06T02:53:51.451Z,13.47
2022-12-06T02:56:53.200Z,14.07
2022-12-06T02:59:54.849Z,13.43
2022-12-06T03:03:04.414Z,14.40
2022-12-06T03:06:09.349Z,14.37
2022-12-06T03:09:21.875Z,13.67
2022-12-06T03:12:43.776Z,14.03
2022-12-06T03:16:00.215Z,13.87
2022-12-06T03:19:06.332Z,12.47
2022-12-06T03:22:29.802Z,11.40
2022-12-06T03:25:33.293Z,12.33
2022-12-06T03:28:36.949Z,13.57
2022-12-06T03:31:40.535Z,21.77
2022-12-06T03:34:44.187Z,20.87
2022-12-06T03:37:48.373Z,22.50
2022-12-06T03:40:51.954Z,31.80
2022-12-06T03:43:53.724Z,25.17
2022-12-06T03:46:59.173Z,36.17
2022-12-06T03:50:03.144Z,12.87
2022-12-06T03:53:05.105Z,32.13
2022-12-06T03:56:06.968Z,29.10
2022-12-06T03:59:09.640Z,26.13
2022-12-06T04:02:11.302Z,15.80
2022-12-06T04:05:13.013Z,11.47
2022-12-06T04:08:14.693Z,16.87
2022-12-06T04:11:16.613Z,11.87
2022-12-06T04:14:18.263Z,13.43
2022-12-06T04:17:38.208Z,12.43
2022-12-06T04:21:23.307Z,11.47
2022-12-06T04:24:24.917Z,12.17
2022-12-06T04:27:45.024Z,12.27
2022-12-06T04:31:05.409Z,12.20
2022-12-06T04:34:25.765Z,12.73
2022-12-06T04:37:45.908Z,11.90
2022-12-06T04:40:48.073Z,11.03
2022-12-06T04:43:49.623Z,11.50
2022-12-06T04:46:51.276Z,10.50
2022-12-06T04:49:53.011Z,9.93
2022-12-06T04:52:54.603Z,10.37
2022-12-06T04:55:56.400Z,12.03
2022-12-06T04:58:58.003Z,12.40
2022-12-06T05:01:59.560Z,12.00
2022-12-06T05:05:01.139Z,13.43
2022-12-06T05:08:03.020Z,11.67
2022-12-06T05:11:04.860Z,13.70
2022-12-06T05:14:08.827Z,13.10
2022-12-06T05:17:10.553Z,11.80
2022-12-06T05:20:14.291Z,13.37
2022-12-06T05:23:16.028Z,11.40
2022-12-06T05:26:18.763Z,11.60
2022-12-06T05:29:20.350Z,10.43
2022-12-06T05:32:22.014Z,12.73
2022-12-06T05:35:23.767Z,14.53
2022-12-06T05:38:25.951Z,14.17
2022-12-06T05:41:27.663Z,16.00
2022-12-06T05:44:29.318Z,14.37
2022-12-06T05:47:30.926Z,13.47
2022-12-06T05:50:32.850Z,15.20
2022-12-06T05:53:34.554Z,15.77
2022-12-06T05:56:36.191Z,15.33
2022-12-06T05:59:37.845Z,14.13
2022-12-06T06:02:39.609Z,14.40
2022-12-06T06:05:49.576Z,14.63
2022-12-06T06:08:52.668Z,13.37
2022-12-06T06:11:55.203Z,14.83
2022-12-06T06:14:57.529Z,17.03
2022-12-06T06:17:59.113Z,16.83
2022-12-06T06:21:00.675Z,13.90
2022-12-06T06:24:02.402Z,13.43
2022-12-06T06:27:04.397Z,13.40
2022-12-06T06:30:08.356Z,10.77
2022-12-06T06:33:10.082Z,15.83
2022-12-06T06:36:11.698Z,14.33
2022-12-06T06:39:13.488Z,13.90
2022-12-06T06:42:15.184Z,10.80
2022-12-06T06:45:17.078Z,15.83
2022-12-06T06:48:18.666Z,12.97
2022-12-06T06:51:20.344Z,12.97
2022-12-06T06:54:23.863Z,20.03
2022-12-06T06:57:25.535Z,13.00
2022-12-06T07:00:27.103Z,13.67
2022-12-06T07:03:28.854Z,12.83
2022-12-06T07:06:30.481Z,10.47
2022-12-06T07:09:32.570Z,13.17
2022-12-06T07:12:34.243Z,12.73
2022-12-06T07:15:36.032Z,12.37
2022-12-06T07:18:37.823Z,12.00
2022-12-06T07:21:39.512Z,11.80
2022-12-06T07:24:43.604Z,13.97
2022-12-06T07:27:47.131Z,13.57
2022-12-06T07:30:48.798Z,15.73
2022-12-06T07:33:54.583Z,15.70
2022-12-06T07:36:56.241Z,16.97
2022-12-06T07:39:58.098Z,19.50
2022-12-06T07:43:18.464Z,18.67
2022-12-06T07:46:20.159Z,17.53
2022-12-06T07:49:22.030Z,18.00
2022-12-06T07:52:23.643Z,17.93
2022-12-06T07:55:25.195Z,19.80
2022-12-06T07:58:26.822Z,23.53
2022-12-06T08:01:28.741Z,23.37
2022-12-06T08:04:30.482Z,30.57
2022-12-06T08:07:32.464Z,23.63
2022-12-06T08:10:34.137Z,25.00
2022-12-06T08:13:36.351Z,20.73
2022-12-06T08:16:37.931Z,19.83
2022-12-06T08:19:39.495Z,19.47
2022-12-06T08:22:41.273Z,22.63
2022-12-06T08:25:42.842Z,22.93
2022-12-06T08:28:44.506Z,21.13
2022-12-06T08:31:46.460Z,23.33
2022-12-06T08:34:48.218Z,26.50
2022-12-06T08:37:49.805Z,27.27
2022-12-06T08:40:51.355Z,27.73
2022-12-06T08:43:53.279Z,42.07
2022-12-06T08:46:55.586Z,28.27
2022-12-06T08:49:59.189Z,28.83
2022-12-06T08:53:01.036Z,24.97
2022-12-06T08:56:03.116Z,25.27
2022-12-06T08:59:04.871Z,25.57
2022-12-06T09:02:06.923Z,26.47
2022-12-06T09:05:08.931Z,23.60
2022-12-06T09:08:10.616Z,25.93
2022-12-06T09:11:12.596Z,31.33
2022-12-06T09:14:20.984Z,29.33
2022-12-06T09:17:23.750Z,31.10
2022-12-06T09:20:25.465Z,27.80
2022-12-06T09:23:27.583Z,29.73
2022-12-06T09:26:29.856Z,27.77
2022-12-06T09:29:33.829Z,20.60
2022-12-06T09:32:39.232Z,23.00
2022-12-06T09:35:40.909Z,20.93
2022-12-06T09:38:44.173Z,22.47
2022-12-06T09:41:57.938Z,20.63
2022-12-06T09:45:13.907Z,20.00
2022-12-06T09:48:24.523Z,19.50
2022-12-06T09:51:29.221Z,21.73
2022-12-06T09:54:39.572Z,21.20
2022-12-06T09:57:55.541Z,24.07
2022-12-06T10:01:00.236Z,21.53
2022-12-06T10:04:22.124Z,21.83
2022-12-06T10:07:39.276Z,22.17
2022-12-06T10:10:53.180Z,17.37
2022-12-06T10:14:02.243Z,19.60
2022-12-06T10:17:11.362Z,19.57
2022-12-06T10:20:16.047Z,17.63
2022-12-06T10:23:29.648Z,18.57
2022-12-06T10:26:37.012Z,17.50
2022-12-06T10:29:41.345Z,18.00
2022-12-06T10:32:50.050Z,20.43
2022-12-06T10:35:58.861Z,19.47
2022-12-06T10:39:08.709Z,17.87
2022-12-06T10:42:10.252Z,17.07
2022-12-06T10:45:49.275Z,20.80
2022-12-06T10:48:50.962Z,20.23
2022-12-06T10:52:01.841Z,20.30
2022-12-06T10:55:06.648Z,18.53
2022-12-06T10:58:08.263Z,20.40
2022-12-06T11:01:13.633Z,19.73
2022-12-06T11:04:35.597Z,21.03
2022-12-06T11:07:42.568Z,27.63
2022-12-06T11:10:46.586Z,23.30
2022-12-06T11:13:53.471Z,18.43
2022-12-06T11:16:58.137Z,20.57
2022-12-06T11:20:01.399Z,20.47
2022-12-06T11:23:22.200Z,21.23
2022-12-06T11:26:23.794Z,21.50
2022-12-06T11:29:25.450Z,18.67
2022-12-06T11:32:27.098Z,20.37
2022-12-06T11:35:28.862Z,19.90
2022-12-06T11:38:30.736Z,20.10
2022-12-06T11:41:34.957Z,19.17
2022-12-06T11:45:03.300Z,20.10
2022-12-06T11:48:13.213Z,33.13
2022-12-06T11:51:22.342Z,34.50
2022-12-06T11:54:29.243Z,23.13
2022-12-06T11:57:50.774Z,20.93
2022-12-06T12:00:57.061Z,20.07
2022-12-06T12:03:58.604Z,19.17
2022-12-06T12:07:02.498Z,18.93
2022-12-06T12:10:17.568Z,17.73
2022-12-06T12:13:39.808Z,20.03
2022-12-06T12:16:49.244Z,20.60
2022-12-06T12:19:52.537Z,21.00
2022-12-06T12:23:02.391Z,19.17
2022-12-06T12:26:09.612Z,19.73
2022-12-06T12:29:15.608Z,23.83
2022-12-06T12:32:20.755Z,27.53
2022-12-06T12:35:22.492Z,38.77
2022-12-06T12:38:27.439Z,27.00
2022-12-06T12:41:32.004Z,22.67
2022-12-06T12:44:38.829Z,24.70
2022-12-06T12:47:55.092Z,21.43
2022-12-06T12:50:58.063Z,24.07
2022-12-06T12:54:03.880Z,23.00
2022-12-06T12:57:12.158Z,25.43
2022-12-06T13:00:16.238Z,23.23
2022-12-06T13:03:49.648Z,23.30
2022-12-06T13:06:45.861Z,24.97
2022-12-06T13:09:54.519Z,25.03
2022-12-06T13:13:01.485Z,25.23
2022-12-06T13:16:10.529Z,25.70
2022-12-06T13:19:15.751Z,24.10
2022-12-06T13:22:26.324Z,24.00
2022-12-06T13:25:28.406Z,22.73
2022-12-06T13:28:34.065Z,24.23
2022-12-06T13:31:38.376Z,25.40
2022-12-06T13:34:43.768Z,23.70
2022-12-06T13:37:47.126Z,24.63
2022-12-06T13:40:55.964Z,23.13
2022-12-06T13:43:57.902Z,23.33
2022-12-06T13:47:18.557Z,23.03
2022-12-06T13:50:20.290Z,20.77
2022-12-06T13:53:23.149Z,22.60
2022-12-06T13:56:24.899Z,23.50
2022-12-06T13:59:35.204Z,19.47
2022-12-06T14:02:43.911Z,23.70
2022-12-06T14:09:01.039Z,29.67
2022-12-06T14:12:06.470Z,22.60
2022-12-06T14:15:17.494Z,25.37
2022-12-06T14:18:20.168Z,26.77
2022-12-06T14:21:24.059Z,30.63
2022-12-06T14:24:39.994Z,30.17
2022-12-06T14:27:46.038Z,23.57
2022-12-06T14:30:47.802Z,26.97
2022-12-06T14:33:50.164Z,26.97
2022-12-06T14:36:52.017Z,27.70
2022-12-06T14:39:54.023Z,31.23
2022-12-06T14:43:02.946Z,32.73
2022-12-06T14:46:10.578Z,28.33
2022-12-06T14:49:32.011Z,27.20
2022-12-06T14:52:33.982Z,29.13
2022-12-06T14:55:37.068Z,33.70
2022-12-06T14:58:42.927Z,33.00
2022-12-06T15:01:48.912Z,42.30
2022-12-06T15:04:50.973Z,56.50
2022-12-06T15:07:52.644Z,40.60
2022-12-06T15:11:01.804Z,40.73
2022-12-06T15:14:22.515Z,66.87
2022-12-06T15:17:24.760Z,63.47
2022-12-06T15:20:26.429Z,69.53
2022-12-06T15:23:28.159Z,69.50
2022-12-06T15:26:29.754Z,61.73
2022-12-06T15:29:31.550Z,56.37
2022-12-06T15:32:33.262Z,64.83
2022-12-06T15:35:34.833Z,51.00
2022-12-06T15:38:36.507Z,44.50
2022-12-06T15:41:39.235Z,47.23
2022-12-06T15:44:45.675Z,53.90
2022-12-06T15:47:52.617Z,43.67
2022-12-06T15:50:56.608Z,35.70
2022-12-06T15:53:58.728Z,42.23
2022-12-06T15:57:00.392Z,49.27
2022-12-06T16:00:02.236Z,47.43
2022-12-06T16:03:07.891Z,42.50
2022-12-06T16:06:13.451Z,57.97
2022-12-06T16:09:16.138Z,43.50
2022-12-06T16:12:18.230Z,44.90
2022-12-06T16:15:19.989Z,43.67
2022-12-06T16:18:21.647Z,48.00
2022-12-06T16:21:28.326Z,51.13
2022-12-06T16:24:29.950Z,42.90
2022-12-06T16:27:31.579Z,40.27
2022-12-06T16:30:34.201Z,41.90
2022-12-06T16:33:35.803Z,42.90
2022-12-06T16:36:53.181Z,39.50
2022-12-06T16:39:54.825Z,40.47
2022-12-06T16:42:56.525Z,39.63
2022-12-06T16:45:58.327Z,38.50
2022-12-06T16:49:22.243Z,41.60
2022-12-06T16:52:22.979Z,42.40
2022-12-06T16:55:24.516Z,46.20
2022-12-06T16:58:26.118Z,53.67
2022-12-06T17:01:35.587Z,60.67
2022-12-06T17:04:37.195Z,56.17
2022-12-06T17:07:39.993Z,53.73
2022-12-06T17:10:41.652Z,52.70
2022-12-06T17:13:43.225Z,80.63
2022-12-06T17:16:45.684Z,54.70
2022-12-06T17:19:47.307Z,54.73
2022-12-06T17:22:49.116Z,55.63
2022-12-06T17:25:56.066Z,52.97
2022-12-06T17:28:57.918Z,49.63
2022-12-06T17:31:59.615Z,52.57
2022-12-06T17:35:01.530Z,52.13
2022-12-06T17:38:03.463Z,48.90
2022-12-06T17:41:31.556Z,54.07
2022-12-06T17:44:34.056Z,54.77
2022-12-06T17:47:35.838Z,48.53
2022-12-06T17:50:37.543Z,47.97
2022-12-06T17:53:39.124Z,46.30
2022-12-06T17:56:42.223Z,47.27
2022-12-06T17:59:45.068Z,47.90
2022-12-06T18:02:48.675Z,48.37
2022-12-06T18:05:50.384Z,63.13
2022-12-06T18:08:52.352Z,70.20
2022-12-06T18:11:55.698Z,70.57
2022-12-06T18:14:57.371Z,55.07
2022-12-06T18:17:58.992Z,55.43
2022-12-06T18:21:04.689Z,56.17
2022-12-06T18:24:25.594Z,51.47
2022-12-06T18:27:28.902Z,63.13
2022-12-06T18:30:30.479Z,44.23
2022-12-06T18:33:32.802Z,51.90
2022-12-06T18:36:34.435Z,58.17
2022-12-06T18:39:36.073Z,78.53
2022-12-06T18:42:38.534Z,50.63
2022-12-06T18:45:40.288Z,51.93
2022-12-06T18:48:43.766Z,51.53
2022-12-06T18:51:45.450Z,49.70
2022-12-06T18:54:47.127Z,48.27
2022-12-06T18:57:48.853Z,46.07
2022-12-06T19:00:50.720Z,46.33
2022-12-06T19:03:52.809Z,46.00
2022-12-06T19:06:54.574Z,48.07
2022-12-06T19:09:56.360Z,48.57
2022-12-06T19:13:01.141Z,51.57
2022-12-06T19:16:07.402Z,51.73
2022-12-06T19:19:20.108Z,54.03
2022-12-06T19:22:21.714Z,51.70
2022-12-06T19:25:23.361Z,49.70
2022-12-06T19:28:24.945Z,50.67
2022-12-06T19:31:26.882Z,51.67
2022-12-06T19:34:30.220Z,56.03
2022-12-06T19:37:31.818Z,58.73
2022-12-06T19:40:33.454Z,58.97
2022-12-06T19:43:53.696Z,63.90
2022-12-06T19:46:55.340Z,58.33
2022-12-06T19:49:57.673Z,64.60
2022-12-06T19:52:59.582Z,61.40
2022-12-06T19:56:01.786Z,58.90
2022-12-06T19:59:11.432Z,57.40
2022-12-06T20:02:13.919Z,51.37
2022-12-06T20:05:15.868Z,56.00
2022-12-06T20:08:17.482Z,56.43
2022-12-06T20:11:38.921Z,52.90
2022-12-06T20:14:47.554Z,50.80
2022-12-06T20:17:49.227Z,54.33
2022-12-06T20:20:50.871Z,56.93
2022-12-06T20:23:52.597Z,62.27
2022-12-06T20:26:55.060Z,65.33
2022-12-06T20:29:56.748Z,61.43
2022-12-06T20:32:58.366Z,62.20
2022-12-06T20:36:00.039Z,68.55
2022-12-06T20:39:01.995Z,63.70
2022-12-06T20:42:05.603Z,62.00
2022-12-06T20:45:07.794Z,76.15
2022-12-06T20:48:09.372Z,69.40
2022-12-06T20:51:13.020Z,63.40
2022-12-06T20:54:14.718Z,56.27
2022-12-06T20:57:16.429Z,56.93
2022-12-06T21:00:18.417Z,46.93
2022-12-06T21:03:20.028Z,44.73
2022-12-06T21:06:22.750Z,42.87
2022-12-06T21:09:24.408Z,46.83
2022-12-06T21:12:26.012Z,41.10
2022-12-06T21:15:27.572Z,46.00
2022-12-06T21:18:30.193Z,39.17
2022-12-06T21:21:34.465Z,37.93
2022-12-06T21:24:36.310Z,37.53
2022-12-06T21:27:37.848Z,37.53
2022-12-06T21:30:39.576Z,48.13
2022-12-06T21:33:41.221Z,43.07
2022-12-06T21:36:43.256Z,44.93
2022-12-06T21:39:47.435Z,43.77
2022-12-06T21:42:51.903Z,43.17
2022-12-06T21:45:53.555Z,45.77
2022-12-06T21:48:56.606Z,66.10
2022-12-06T21:52:03.149Z,72.53
2022-12-06T21:55:09.341Z,75.73
2022-12-06T21:58:10.951Z,62.37
2022-12-06T22:01:13.614Z,52.70
2022-12-06T22:04:15.284Z,58.23
2022-12-06T22:07:16.877Z,54.80
2022-12-06T22:10:18.484Z,40.43
2022-12-06T22:13:20.039Z,42.77
2022-12-06T22:16:24.299Z,46.37
2022-12-06T22:19:26.215Z,41.53
2022-12-06T22:22:27.929Z,36.93
2022-12-06T22:25:29.618Z,40.00
2022-12-06T22:28:31.260Z,35.93
2022-12-06T22:31:34.066Z,37.07
2022-12-06T22:34:35.750Z,40.57
2022-12-06T22:37:37.417Z,35.70
2022-12-06T22:40:39.069Z,43.10
2022-12-06T22:43:40.672Z,36.27
2022-12-06T22:46:42.312Z,34.13
2022-12-06T22:49:43.936Z,33.07
2022-12-06T22:52:45.631Z,30.17
2022-12-06T22:55:47.266Z,30.13
2022-12-06T22:58:48.938Z,26.93
2022-12-06T23:01:50.633Z,27.10
2022-12-06T23:04:52.396Z,26.57
2022-12-06T23:07:54.125Z,31.88
2022-12-06T23:10:59.691Z,28.80
2022-12-06T23:14:03.161Z,27.30
2022-12-06T23:17:04.854Z,28.53
2022-12-06T23:20:07.456Z,27.37
2022-12-06T23:23:09.137Z,19.07
2022-12-06T23:26:12.494Z,20.37
2022-12-06T23:29:14.598Z,18.43
2022-12-06T23:32:16.306Z,20.23
2022-12-06T23:35:17.948Z,20.60
2022-12-06T23:38:19.564Z,21.83
2022-12-06T23:41:22.897Z,20.03
2022-12-06T23:44:25.323Z,20.03
2022-12-06T23:47:27.030Z,21.97
2022-12-06T23:50:28.726Z,21.13
2022-12-06T23:53:30.786Z,21.90
2022-12-06T23:56:33.579Z,22.70
2022-12-06T23:59:35.208Z,22.53
